WAT385 OKKK-OMDB
Flight info
| Callsign | WAT385 |
|---|---|
| Flight time | 1h 11m |
| Altitude | 37000 |
| Route | SESRU M677 VUTEB |
| Aircraft | B772/H-SDE2E3FGHIJ5LORVWXY/LB1D1 |
Departure
| Time | 2026-05-09 08:26 |
|---|---|
| Airport | Kuwait International Airport (OKKK) |
Arrival
| Time | 2026-05-09 09:38 |
|---|---|
| Airport | Dubai International Airport (OMDB) |
| Time | Latitude | Longitude | Altitude | Speed | Heading |
|---|---|---|---|---|---|
| 2026-05-09 07:53 | 29.24413 | 47.97718 | 204 ft | 0 kts | 336° |
| 2026-05-09 08:02 | 29.24412 | 47.97718 | 204 ft | 0 kts | 336° |
| 2026-05-09 08:17 | 29.24415 | 47.97718 | 198 ft | 3 kts | 344° |
| 2026-05-09 08:17 | 29.24437 | 47.97777 | 188 ft | 12 kts | 89° |
| 2026-05-09 08:17 | 29.24435 | 47.97874 | 205 ft | 12 kts | 104° |
| 2026-05-09 08:18 | 29.24380 | 47.97944 | 213 ft | 12 kts | 151° |
| 2026-05-09 08:18 | 29.24306 | 47.97987 | 205 ft | 12 kts | 158° |
| 2026-05-09 08:18 | 29.24229 | 47.98025 | 220 ft | 12 kts | 156° |
| 2026-05-09 08:18 | 29.24153 | 47.98067 | 216 ft | 12 kts | 153° |
| 2026-05-09 08:19 | 29.24077 | 47.98110 | 221 ft | 12 kts | 154° |
| 2026-05-09 08:19 | 29.24000 | 47.98152 | 218 ft | 12 kts | 155° |
| 2026-05-09 08:19 | 29.23916 | 47.98195 | 220 ft | 15 kts | 157° |
| 2026-05-09 08:19 | 29.23821 | 47.98244 | 213 ft | 15 kts | 155° |
| 2026-05-09 08:20 | 29.23723 | 47.98296 | 212 ft | 16 kts | 155° |
| 2026-05-09 08:20 | 29.23616 | 47.98352 | 221 ft | 17 kts | 155° |
| 2026-05-09 08:20 | 29.23507 | 47.98407 | 221 ft | 17 kts | 153° |
| 2026-05-09 08:20 | 29.23397 | 47.98471 | 221 ft | 19 kts | 154° |
| 2026-05-09 08:21 | 29.23274 | 47.98538 | 224 ft | 20 kts | 154° |
| 2026-05-09 08:21 | 29.23144 | 47.98607 | 223 ft | 22 kts | 155° |
| 2026-05-09 08:21 | 29.23004 | 47.98679 | 221 ft | 18 kts | 155° |
| 2026-05-09 08:21 | 29.22890 | 47.98738 | 223 ft | 18 kts | 155° |
| 2026-05-09 08:22 | 29.22776 | 47.98797 | 222 ft | 18 kts | 155° |
| 2026-05-09 08:22 | 29.22663 | 47.98859 | 221 ft | 18 kts | 154° |
| 2026-05-09 08:22 | 29.22538 | 47.98926 | 217 ft | 22 kts | 155° |
| 2026-05-09 08:22 | 29.22397 | 47.99000 | 223 ft | 20 kts | 155° |
| 2026-05-09 08:23 | 29.22261 | 47.99073 | 222 ft | 23 kts | 155° |
| 2026-05-09 08:23 | 29.22107 | 47.99156 | 217 ft | 20 kts | 155° |
| 2026-05-09 08:23 | 29.21979 | 47.99223 | 221 ft | 20 kts | 155° |
| 2026-05-09 08:23 | 29.21852 | 47.99289 | 220 ft | 20 kts | 155° |
| 2026-05-09 08:24 | 29.21724 | 47.99358 | 221 ft | 20 kts | 155° |
| 2026-05-09 08:24 | 29.21596 | 47.99426 | 212 ft | 20 kts | 155° |
| 2026-05-09 08:24 | 29.21467 | 47.99493 | 219 ft | 20 kts | 156° |
| 2026-05-09 08:24 | 29.21349 | 47.99553 | 218 ft | 16 kts | 155° |
| 2026-05-09 08:25 | 29.21278 | 47.99619 | 221 ft | 12 kts | 101° |
| 2026-05-09 08:25 | 29.21303 | 47.99710 | 216 ft | 12 kts | 66° |
| 2026-05-09 08:25 | 29.21341 | 47.99789 | 222 ft | 11 kts | 35° |
| 2026-05-09 08:25 | 29.21422 | 47.99776 | 226 ft | 21 kts | 336° |
| 2026-05-09 08:26 | 29.21825 | 47.99563 | 219 ft | 116 kts | 335° |
| 2026-05-09 08:26 | 29.22835 | 47.99022 | 486 ft | 191 kts | 334° |
| 2026-05-09 08:26 | 29.24121 | 47.98328 | 1693 ft | 213 kts | 336° |
| 2026-05-09 08:26 | 29.25592 | 47.97756 | 2556 ft | 239 kts | 355° |
| 2026-05-09 08:27 | 29.27311 | 47.98077 | 3093 ft | 264 kts | 29° |
| 2026-05-09 08:27 | 29.28667 | 47.99489 | 4136 ft | 269 kts | 60° |
| 2026-05-09 08:27 | 29.29160 | 48.01531 | 5278 ft | 269 kts | 92° |
| 2026-05-09 08:27 | 29.28942 | 48.03665 | 6235 ft | 274 kts | 101° |
| 2026-05-09 08:28 | 29.28589 | 48.05844 | 7250 ft | 282 kts | 102° |
| 2026-05-09 08:28 | 29.28209 | 48.08065 | 8344 ft | 287 kts | 102° |
| 2026-05-09 08:28 | 29.27823 | 48.10323 | 9364 ft | 292 kts | 102° |
| 2026-05-09 08:28 | 29.27435 | 48.12641 | 10321 ft | 301 kts | 102° |
| 2026-05-09 08:29 | 29.27035 | 48.15069 | 10737 ft | 331 kts | 102° |
| 2026-05-09 08:29 | 29.26597 | 48.17770 | 11318 ft | 354 kts | 102° |
| 2026-05-09 08:29 | 29.26147 | 48.20596 | 12348 ft | 364 kts | 102° |
| 2026-05-09 08:29 | 29.25693 | 48.23487 | 13468 ft | 374 kts | 102° |
| 2026-05-09 08:30 | 29.25228 | 48.26463 | 14537 ft | 385 kts | 103° |
| 2026-05-09 08:30 | 29.24752 | 48.29523 | 15634 ft | 395 kts | 103° |
| 2026-05-09 08:30 | 29.24263 | 48.32663 | 16679 ft | 405 kts | 104° |
| 2026-05-09 08:30 | 29.23763 | 48.35873 | 17709 ft | 414 kts | 104° |
| 2026-05-09 08:31 | 29.23250 | 48.39158 | 18700 ft | 424 kts | 104° |
| 2026-05-09 08:31 | 29.22725 | 48.42520 | 19684 ft | 432 kts | 105° |
| 2026-05-09 08:31 | 29.22193 | 48.45925 | 20751 ft | 437 kts | 105° |
| 2026-05-09 08:31 | 29.21655 | 48.49370 | 21835 ft | 441 kts | 105° |
| 2026-05-09 08:32 | 29.21110 | 48.52844 | 22827 ft | 447 kts | 106° |
| 2026-05-09 08:32 | 29.20555 | 48.56368 | 23777 ft | 453 kts | 106° |
| 2026-05-09 08:32 | 29.19418 | 48.63573 | 25591 ft | 465 kts | 106° |
| 2026-05-09 08:33 | 29.18837 | 48.67246 | 26401 ft | 473 kts | 106° |
| 2026-05-09 08:33 | 29.18255 | 48.70932 | 27161 ft | 480 kts | 106° |
| 2026-05-09 08:33 | 29.17647 | 48.74764 | 27929 ft | 486 kts | 106° |
| 2026-05-09 08:33 | 29.17048 | 48.78546 | 28653 ft | 492 kts | 105° |
| 2026-05-09 08:34 | 29.16432 | 48.82421 | 29336 ft | 498 kts | 105° |
| 2026-05-09 08:34 | 29.15765 | 48.86314 | 29934 ft | 498 kts | 110° |
| 2026-05-09 08:34 | 29.14563 | 48.90005 | 30417 ft | 494 kts | 124° |
| 2026-05-09 08:34 | 29.12727 | 48.93300 | 30996 ft | 487 kts | 136° |
| 2026-05-09 08:35 | 29.10438 | 48.96103 | 31597 ft | 474 kts | 148° |
| 2026-05-09 08:35 | 29.07886 | 48.98524 | 32045 ft | 479 kts | 149° |
| 2026-05-09 08:35 | 29.05294 | 49.00955 | 32459 ft | 486 kts | 149° |
| 2026-05-09 08:35 | 29.02678 | 49.03435 | 32950 ft | 491 kts | 149° |
| 2026-05-09 08:36 | 29.00052 | 49.05963 | 33471 ft | 495 kts | 148° |
| 2026-05-09 08:36 | 28.97411 | 49.08529 | 33965 ft | 499 kts | 148° |
| 2026-05-09 08:36 | 28.94762 | 49.11115 | 34431 ft | 503 kts | 148° |
| 2026-05-09 08:36 | 28.92136 | 49.13681 | 34971 ft | 504 kts | 148° |
| 2026-05-09 08:37 | 28.89461 | 49.16287 | 35540 ft | 505 kts | 148° |
| 2026-05-09 08:37 | 28.86792 | 49.18890 | 36106 ft | 506 kts | 148° |
| 2026-05-09 08:37 | 28.84139 | 49.21561 | 36645 ft | 509 kts | 147° |
| 2026-05-09 08:37 | 28.81503 | 49.24272 | 36935 ft | 513 kts | 146° |
| 2026-05-09 08:38 | 28.78864 | 49.27006 | 36899 ft | 510 kts | 146° |
| 2026-05-09 08:38 | 28.73673 | 49.32369 | 36889 ft | 500 kts | 147° |
| 2026-05-09 08:39 | 28.68464 | 49.37682 | 36901 ft | 505 kts | 147° |
| 2026-05-09 08:39 | 28.63172 | 49.43149 | 36902 ft | 523 kts | 143° |
| 2026-05-09 08:40 | 28.58483 | 49.49577 | 36900 ft | 533 kts | 130° |
| 2026-05-09 08:40 | 28.54632 | 49.56843 | 36882 ft | 537 kts | 126° |
| 2026-05-09 08:41 | 28.50874 | 49.64091 | 36916 ft | 535 kts | 127° |
| 2026-05-09 08:41 | 28.47016 | 49.71346 | 36901 ft | 537 kts | 127° |
| 2026-05-09 08:42 | 28.42932 | 49.78416 | 36914 ft | 529 kts | 136° |
| 2026-05-09 08:42 | 28.37805 | 49.84247 | 36896 ft | 516 kts | 149° |
| 2026-05-09 08:43 | 28.31972 | 49.88831 | 36891 ft | 508 kts | 156° |
| 2026-05-09 08:43 | 28.26044 | 49.93226 | 36886 ft | 509 kts | 155° |
| 2026-05-09 08:44 | 28.20133 | 49.97664 | 36871 ft | 510 kts | 155° |
| 2026-05-09 08:44 | 28.14258 | 50.02109 | 36877 ft | 510 kts | 155° |
| 2026-05-09 08:45 | 28.08356 | 50.06578 | 36869 ft | 510 kts | 155° |
| 2026-05-09 08:45 | 28.02438 | 50.11055 | 36871 ft | 510 kts | 155° |
| 2026-05-09 08:46 | 27.96530 | 50.15511 | 36865 ft | 510 kts | 155° |
| 2026-05-09 08:46 | 27.90652 | 50.19940 | 36869 ft | 510 kts | 155° |
| 2026-05-09 08:47 | 27.84743 | 50.24387 | 36871 ft | 510 kts | 155° |
| 2026-05-09 08:47 | 27.78826 | 50.28834 | 36862 ft | 510 kts | 155° |
| 2026-05-09 08:48 | 27.72922 | 50.33263 | 36863 ft | 509 kts | 155° |
| 2026-05-09 08:48 | 27.67018 | 50.37690 | 36858 ft | 509 kts | 155° |
| 2026-05-09 08:49 | 27.61129 | 50.42108 | 36859 ft | 509 kts | 154° |
| 2026-05-09 08:49 | 27.55279 | 50.46621 | 36851 ft | 510 kts | 154° |
| 2026-05-09 08:50 | 27.49485 | 50.51115 | 36850 ft | 508 kts | 154° |
| 2026-05-09 08:50 | 27.43644 | 50.55611 | 36851 ft | 508 kts | 154° |
| 2026-05-09 08:51 | 27.37794 | 50.60077 | 36853 ft | 508 kts | 154° |
| 2026-05-09 08:51 | 27.31933 | 50.64539 | 36842 ft | 508 kts | 154° |
| 2026-05-09 08:52 | 27.26081 | 50.68995 | 36846 ft | 508 kts | 154° |
| 2026-05-09 08:52 | 27.20265 | 50.73422 | 36853 ft | 507 kts | 154° |
| 2026-05-09 08:53 | 27.14502 | 50.78030 | 36853 ft | 513 kts | 148° |
| 2026-05-09 08:53 | 27.10172 | 50.82680 | 36847 ft | 521 kts | 140° |
| 2026-05-09 08:54 | 27.05140 | 50.88532 | 36851 ft | 520 kts | 141° |
| 2026-05-09 08:54 | 27.00177 | 50.94452 | 36853 ft | 525 kts | 135° |
| 2026-05-09 08:55 | 26.96047 | 51.01289 | 36855 ft | 532 kts | 126° |
| 2026-05-09 08:55 | 26.92239 | 51.08404 | 36855 ft | 532 kts | 126° |
| 2026-05-09 08:56 | 26.88392 | 51.15499 | 36855 ft | 534 kts | 123° |
| 2026-05-09 08:56 | 26.85405 | 51.23171 | 36853 ft | 541 kts | 111° |
| 2026-05-09 08:57 | 26.83094 | 51.31194 | 36850 ft | 541 kts | 110° |
| 2026-05-09 08:57 | 26.80791 | 51.39145 | 36852 ft | 540 kts | 111° |
| 2026-05-09 08:58 | 26.78415 | 51.47112 | 36854 ft | 540 kts | 111° |
| 2026-05-09 08:58 | 26.76021 | 51.55075 | 36858 ft | 540 kts | 111° |
| 2026-05-09 08:59 | 26.73631 | 51.63041 | 36866 ft | 540 kts | 111° |
| 2026-05-09 08:59 | 26.71210 | 51.71014 | 36867 ft | 539 kts | 111° |
| 2026-05-09 09:00 | 26.68806 | 51.78950 | 36873 ft | 539 kts | 111° |
| 2026-05-09 09:00 | 26.66407 | 51.86881 | 36878 ft | 538 kts | 111° |
| 2026-05-09 09:01 | 26.63961 | 51.94795 | 36881 ft | 538 kts | 112° |
| 2026-05-09 09:01 | 26.61402 | 52.02603 | 36885 ft | 538 kts | 112° |
| 2026-05-09 09:02 | 26.58812 | 52.10438 | 36895 ft | 538 kts | 112° |
| 2026-05-09 09:02 | 26.56244 | 52.18287 | 36900 ft | 537 kts | 112° |
| 2026-05-09 09:03 | 26.53677 | 52.26127 | 36896 ft | 536 kts | 112° |
| 2026-05-09 09:03 | 26.51108 | 52.33952 | 36896 ft | 537 kts | 112° |
| 2026-05-09 09:04 | 26.48536 | 52.41777 | 36898 ft | 537 kts | 112° |
| 2026-05-09 09:04 | 26.45970 | 52.49565 | 36898 ft | 538 kts | 112° |
| 2026-05-09 09:05 | 26.43385 | 52.57397 | 36884 ft | 537 kts | 112° |
| 2026-05-09 09:05 | 26.40794 | 52.65239 | 36892 ft | 537 kts | 112° |
| 2026-05-09 09:06 | 26.38232 | 52.73070 | 36888 ft | 537 kts | 112° |
| 2026-05-09 09:06 | 26.35668 | 52.80901 | 36890 ft | 536 kts | 112° |
| 2026-05-09 09:07 | 26.33070 | 52.88707 | 36886 ft | 536 kts | 113° |
| 2026-05-09 09:07 | 26.30457 | 52.96485 | 36887 ft | 536 kts | 113° |
| 2026-05-09 09:08 | 26.27857 | 53.04221 | 36886 ft | 536 kts | 112° |
| 2026-05-09 09:08 | 26.25246 | 53.12003 | 36884 ft | 536 kts | 112° |
| 2026-05-09 09:09 | 26.22626 | 53.19783 | 36892 ft | 536 kts | 112° |
| 2026-05-09 09:09 | 26.20007 | 53.27555 | 36909 ft | 535 kts | 112° |
| 2026-05-09 09:10 | 26.17301 | 53.35275 | 36912 ft | 533 kts | 116° |
| 2026-05-09 09:10 | 26.14251 | 53.42799 | 36911 ft | 533 kts | 117° |
| 2026-05-09 09:11 | 26.11178 | 53.50225 | 36911 ft | 525 kts | 117° |
| 2026-05-09 09:11 | 26.09676 | 53.53887 | 36784 ft | 514 kts | 117° |
| 2026-05-09 09:11 | 26.08201 | 53.57497 | 36292 ft | 510 kts | 117° |
| 2026-05-09 09:11 | 26.06736 | 53.61093 | 35628 ft | 511 kts | 117° |
| 2026-05-09 09:12 | 26.05264 | 53.64705 | 34853 ft | 513 kts | 117° |
| 2026-05-09 09:12 | 26.03793 | 53.68316 | 34228 ft | 511 kts | 117° |
| 2026-05-09 09:12 | 26.02333 | 53.71897 | 33748 ft | 504 kts | 117° |
| 2026-05-09 09:12 | 26.00898 | 53.75409 | 33277 ft | 497 kts | 117° |
| 2026-05-09 09:13 | 25.99494 | 53.78908 | 32704 ft | 493 kts | 116° |
| 2026-05-09 09:13 | 25.98126 | 53.82401 | 32142 ft | 489 kts | 116° |
| 2026-05-09 09:13 | 25.96780 | 53.85861 | 31592 ft | 485 kts | 116° |
| 2026-05-09 09:13 | 25.95449 | 53.89280 | 31043 ft | 480 kts | 116° |
| 2026-05-09 09:14 | 25.94119 | 53.92669 | 30513 ft | 475 kts | 116° |
| 2026-05-09 09:14 | 25.92815 | 53.95981 | 29990 ft | 471 kts | 117° |
| 2026-05-09 09:14 | 25.91507 | 53.99289 | 29448 ft | 466 kts | 117° |
| 2026-05-09 09:14 | 25.90123 | 54.02523 | 28898 ft | 461 kts | 120° |
| 2026-05-09 09:15 | 25.88690 | 54.05687 | 28328 ft | 457 kts | 120° |
| 2026-05-09 09:15 | 25.87257 | 54.08820 | 27767 ft | 454 kts | 120° |
| 2026-05-09 09:15 | 25.85843 | 54.11944 | 27237 ft | 450 kts | 120° |
| 2026-05-09 09:15 | 25.84452 | 54.15058 | 26668 ft | 447 kts | 119° |
| 2026-05-09 09:16 | 25.83083 | 54.18135 | 26136 ft | 444 kts | 119° |
| 2026-05-09 09:16 | 25.80707 | 54.24419 | 25087 ft | 440 kts | 111° |
| 2026-05-09 09:16 | 25.79735 | 54.27631 | 24576 ft | 437 kts | 111° |
| 2026-05-09 09:17 | 25.78777 | 54.30818 | 24095 ft | 434 kts | 111° |
| 2026-05-09 09:17 | 25.77833 | 54.33938 | 23604 ft | 431 kts | 111° |
| 2026-05-09 09:17 | 25.76875 | 54.37074 | 23123 ft | 427 kts | 111° |
| 2026-05-09 09:17 | 25.75913 | 54.40198 | 22628 ft | 425 kts | 111° |
| 2026-05-09 09:18 | 25.74954 | 54.43297 | 22112 ft | 423 kts | 111° |
| 2026-05-09 09:18 | 25.74000 | 54.46377 | 21639 ft | 421 kts | 111° |
| 2026-05-09 09:18 | 25.73051 | 54.49435 | 21181 ft | 418 kts | 111° |
| 2026-05-09 09:18 | 25.72106 | 54.52477 | 20727 ft | 416 kts | 111° |
| 2026-05-09 09:19 | 25.71170 | 54.55493 | 20281 ft | 413 kts | 111° |
| 2026-05-09 09:19 | 25.70245 | 54.58467 | 19840 ft | 411 kts | 111° |
| 2026-05-09 09:19 | 25.69308 | 54.61462 | 19423 ft | 408 kts | 111° |
| 2026-05-09 09:19 | 25.68367 | 54.64416 | 19016 ft | 405 kts | 112° |
| 2026-05-09 09:20 | 25.67424 | 54.67349 | 18589 ft | 403 kts | 112° |
| 2026-05-09 09:20 | 25.66481 | 54.70279 | 18160 ft | 401 kts | 112° |
| 2026-05-09 09:20 | 25.65545 | 54.73187 | 17748 ft | 399 kts | 112° |
| 2026-05-09 09:20 | 25.64618 | 54.76073 | 17372 ft | 395 kts | 112° |
| 2026-05-09 09:21 | 25.63705 | 54.78918 | 17176 ft | 387 kts | 111° |
| 2026-05-09 09:21 | 25.62817 | 54.81686 | 17108 ft | 375 kts | 112° |
| 2026-05-09 09:21 | 25.61955 | 54.84371 | 17041 ft | 364 kts | 112° |
| 2026-05-09 09:21 | 25.61110 | 54.86966 | 16968 ft | 353 kts | 114° |
| 2026-05-09 09:22 | 25.60191 | 54.89416 | 16907 ft | 343 kts | 116° |
| 2026-05-09 09:22 | 25.59233 | 54.91795 | 16835 ft | 334 kts | 117° |
| 2026-05-09 09:22 | 25.58294 | 54.94111 | 16738 ft | 326 kts | 117° |
| 2026-05-09 09:22 | 25.57379 | 54.96390 | 16523 ft | 323 kts | 116° |
| 2026-05-09 09:23 | 25.56475 | 54.98670 | 16248 ft | 322 kts | 116° |
| 2026-05-09 09:23 | 25.55580 | 55.00938 | 15976 ft | 321 kts | 116° |
| 2026-05-09 09:23 | 25.54689 | 55.03199 | 15712 ft | 319 kts | 116° |
| 2026-05-09 09:23 | 25.53574 | 55.05260 | 15327 ft | 309 kts | 139° |
| 2026-05-09 09:24 | 25.51819 | 55.06540 | 14960 ft | 297 kts | 160° |
| 2026-05-09 09:24 | 25.50070 | 55.07726 | 14422 ft | 304 kts | 137° |
| 2026-05-09 09:24 | 25.49037 | 55.09796 | 14036 ft | 314 kts | 104° |
| 2026-05-09 09:24 | 25.48685 | 55.12138 | 13713 ft | 306 kts | 103° |
| 2026-05-09 09:25 | 25.48112 | 55.14416 | 13368 ft | 307 kts | 111° |
| 2026-05-09 09:25 | 25.47341 | 55.16607 | 13145 ft | 304 kts | 115° |
| 2026-05-09 09:25 | 25.46518 | 55.18750 | 12928 ft | 301 kts | 115° |
| 2026-05-09 09:25 | 25.45529 | 55.20710 | 12561 ft | 294 kts | 132° |
| 2026-05-09 09:26 | 25.44136 | 55.22389 | 12072 ft | 299 kts | 136° |
| 2026-05-09 09:26 | 25.42667 | 55.24108 | 11443 ft | 313 kts | 135° |
| 2026-05-09 09:26 | 25.41173 | 55.25896 | 10815 ft | 319 kts | 134° |
| 2026-05-09 09:26 | 25.39675 | 55.27719 | 10243 ft | 322 kts | 134° |
| 2026-05-09 09:27 | 25.38163 | 55.29571 | 9673 ft | 325 kts | 133° |
| 2026-05-09 09:27 | 25.36651 | 55.31426 | 9127 ft | 318 kts | 133° |
| 2026-05-09 09:27 | 25.35141 | 55.33035 | 8624 ft | 289 kts | 147° |
| 2026-05-09 09:27 | 25.33438 | 55.34064 | 8160 ft | 272 kts | 154° |
| 2026-05-09 09:28 | 25.31736 | 55.35013 | 7819 ft | 275 kts | 154° |
| 2026-05-09 09:28 | 25.30050 | 55.35972 | 7494 ft | 267 kts | 153° |
| 2026-05-09 09:28 | 25.28451 | 55.36894 | 7127 ft | 252 kts | 153° |
| 2026-05-09 09:28 | 25.26895 | 55.37795 | 6820 ft | 252 kts | 153° |
| 2026-05-09 09:29 | 25.25350 | 55.38692 | 6501 ft | 251 kts | 153° |
| 2026-05-09 09:29 | 25.23872 | 55.39555 | 6178 ft | 244 kts | 152° |
| 2026-05-09 09:29 | 25.22386 | 55.40427 | 5896 ft | 243 kts | 152° |
| 2026-05-09 09:29 | 25.20898 | 55.41298 | 5581 ft | 243 kts | 152° |
| 2026-05-09 09:30 | 25.19410 | 55.42169 | 5308 ft | 241 kts | 152° |
| 2026-05-09 09:30 | 25.17933 | 55.43033 | 5032 ft | 239 kts | 152° |
| 2026-05-09 09:30 | 25.16464 | 55.43891 | 4767 ft | 238 kts | 152° |
| 2026-05-09 09:30 | 25.15006 | 55.44743 | 4485 ft | 237 kts | 152° |
| 2026-05-09 09:31 | 25.13553 | 55.45592 | 4208 ft | 235 kts | 153° |
| 2026-05-09 09:31 | 25.12108 | 55.46436 | 3926 ft | 234 kts | 152° |
| 2026-05-09 09:31 | 25.10860 | 55.47503 | 3611 ft | 227 kts | 126° |
| 2026-05-09 09:32 | 25.09302 | 55.50379 | 3166 ft | 213 kts | 122° |
| 2026-05-09 09:32 | 25.08756 | 55.51864 | 2827 ft | 210 kts | 95° |
| 2026-05-09 09:32 | 25.09056 | 55.53409 | 2527 ft | 208 kts | 58° |
| 2026-05-09 09:32 | 25.10109 | 55.54461 | 2237 ft | 206 kts | 22° |
| 2026-05-09 09:33 | 25.11483 | 55.54606 | 2070 ft | 196 kts | 345° |
| 2026-05-09 09:33 | 25.12715 | 55.54001 | 2015 ft | 199 kts | 332° |
| 2026-05-09 09:33 | 25.13954 | 55.53294 | 2006 ft | 202 kts | 332° |
| 2026-05-09 09:33 | 25.15205 | 55.52583 | 1996 ft | 201 kts | 332° |
| 2026-05-09 09:34 | 25.16394 | 55.51843 | 1990 ft | 192 kts | 320° |
| 2026-05-09 09:34 | 25.17235 | 55.50728 | 2010 ft | 188 kts | 307° |
| 2026-05-09 09:34 | 25.17978 | 55.49591 | 1995 ft | 176 kts | 304° |
| 2026-05-09 09:36 | 25.22032 | 55.42318 | 647 ft | 129 kts | 302° |
| 2026-05-09 09:36 | 25.22495 | 55.41478 | 473 ft | 128 kts | 302° |
| 2026-05-09 09:36 | 25.22959 | 55.40640 | 313 ft | 128 kts | 302° |
| 2026-05-09 09:37 | 25.23419 | 55.39797 | 144 ft | 129 kts | 301° |
| 2026-05-09 09:37 | 25.23884 | 55.38961 | 38 ft | 122 kts | 302° |
| 2026-05-09 09:37 | 25.24158 | 55.38465 | 30 ft | 98 kts | 301° |
| 2026-05-09 09:37 | 25.24479 | 55.37888 | 29 ft | 55 kts | 301° |
| 2026-05-09 09:38 | 25.24711 | 55.37465 | 27 ft | 60 kts | 301° |
| 2026-05-09 09:38 | 25.24778 | 55.37248 | 29 ft | 29 kts | 278° |
| 2026-05-09 09:38 | 25.24783 | 55.37153 | 28 ft | 16 kts | 272° |
| 2026-05-09 09:38 | 25.24786 | 55.37058 | 27 ft | 12 kts | 272° |
| 2026-05-09 09:39 | 25.24795 | 55.36969 | 26 ft | 12 kts | 289° |
| 2026-05-09 09:39 | 25.24829 | 55.36887 | 26 ft | 13 kts | 295° |
| 2026-05-09 09:39 | 25.24864 | 55.36774 | 31 ft | 18 kts | 281° |
| 2026-05-09 09:39 | 25.24912 | 55.36631 | 29 ft | 20 kts | 300° |
| 2026-05-09 09:40 | 25.24983 | 55.36503 | 31 ft | 19 kts | 302° |
| 2026-05-09 09:40 | 25.25054 | 55.36378 | 32 ft | 19 kts | 302° |
| 2026-05-09 09:40 | 25.25125 | 55.36251 | 31 ft | 19 kts | 301° |
| 2026-05-09 09:40 | 25.25197 | 55.36124 | 30 ft | 19 kts | 302° |
| 2026-05-09 09:41 | 25.25268 | 55.35997 | 31 ft | 19 kts | 302° |
| 2026-05-09 09:41 | 25.25340 | 55.35870 | 30 ft | 19 kts | 301° |
| 2026-05-09 09:41 | 25.25411 | 55.35742 | 28 ft | 19 kts | 302° |
| 2026-05-09 09:41 | 25.25481 | 55.35619 | 30 ft | 19 kts | 302° |
| 2026-05-09 09:42 | 25.25550 | 55.35496 | 28 ft | 18 kts | 302° |
| 2026-05-09 09:42 | 25.25614 | 55.35382 | 26 ft | 16 kts | 302° |
| 2026-05-09 09:42 | 25.25658 | 55.35305 | 31 ft | 7 kts | 302° |
| 2026-05-09 09:42 | 25.25672 | 55.35279 | 28 ft | 2 kts | 302° |
| 2026-05-09 09:43 | 25.25680 | 55.35266 | 26 ft | 2 kts | 301° |
| 2026-05-09 09:43 | 25.25703 | 55.35225 | 29 ft | 12 kts | 301° |
| 2026-05-09 09:43 | 25.25747 | 55.35144 | 29 ft | 12 kts | 301° |
| 2026-05-09 09:43 | 25.25786 | 55.35061 | 28 ft | 12 kts | 283° |
| 2026-05-09 09:44 | 25.25752 | 55.34974 | 27 ft | 13 kts | 262° |
| 2026-05-09 09:44 | 25.25789 | 55.34887 | 29 ft | 13 kts | 301° |
| 2026-05-09 09:44 | 25.25806 | 55.34799 | 29 ft | 13 kts | 240° |
| 2026-05-09 09:44 | 25.25760 | 55.34767 | 26 ft | 4 kts | 208° |
| 2026-05-09 09:45 | 25.25744 | 55.34757 | 28 ft | 0 kts | 211° |